sensor_id;sensor_type;location;lat;lon;timestamp;P1;durP1;ratioP1;P2;durP2;ratioP2
52188;SDS011;38162;45.926;13.608;2022-09-14T00:00:44;5.25;;;1.40;;
52188;SDS011;38162;45.926;13.608;2022-09-14T00:03:10;3.67;;;1.15;;
52188;SDS011;38162;45.926;13.608;2022-09-14T00:05:35;2.47;;;1.23;;
52188;SDS011;38162;45.926;13.608;2022-09-14T00:08:02;4.57;;;1.20;;
52188;SDS011;38162;45.926;13.608;2022-09-14T00:10:28;4.95;;;1.50;;
52188;SDS011;38162;45.926;13.608;2022-09-14T00:12:54;1.92;;;1.35;;
52188;SDS011;38162;45.926;13.608;2022-09-14T00:15:20;2.55;;;1.08;;
52188;SDS011;38162;45.926;13.608;2022-09-14T00:17:45;3.13;;;1.38;;
52188;SDS011;38162;45.926;13.608;2022-09-14T00:20:11;4.90;;;1.70;;
52188;SDS011;38162;45.926;13.608;2022-09-14T00:22:37;4.60;;;1.45;;
52188;SDS011;38162;45.926;13.608;2022-09-14T00:25:03;5.10;;;1.58;;
52188;SDS011;38162;45.926;13.608;2022-09-14T00:27:29;3.90;;;1.60;;
52188;SDS011;38162;45.926;13.608;2022-09-14T00:29:55;4.40;;;1.38;;
52188;SDS011;38162;45.926;13.608;2022-09-14T00:32:20;8.13;;;1.85;;
52188;SDS011;38162;45.926;13.608;2022-09-14T00:34:46;8.00;;;1.50;;
52188;SDS011;38162;45.926;13.608;2022-09-14T00:37:12;4.43;;;1.20;;
52188;SDS011;38162;45.926;13.608;2022-09-14T00:39:37;4.85;;;1.65;;
52188;SDS011;38162;45.926;13.608;2022-09-14T00:42:04;7.32;;;1.77;;
52188;SDS011;38162;45.926;13.608;2022-09-14T00:46:56;2.65;;;1.25;;
52188;SDS011;38162;45.926;13.608;2022-09-14T00:49:35;3.00;;;1.55;;
52188;SDS011;38162;45.926;13.608;2022-09-14T00:52:10;5.97;;;1.08;;
52188;SDS011;38162;45.926;13.608;2022-09-14T00:54:41;2.88;;;1.40;;
52188;SDS011;38162;45.926;13.608;2022-09-14T00:57:10;3.72;;;1.45;;
52188;SDS011;38162;45.926;13.608;2022-09-14T00:59:37;3.28;;;1.50;;
52188;SDS011;38162;45.926;13.608;2022-09-14T01:02:05;2.42;;;1.20;;
52188;SDS011;38162;45.926;13.608;2022-09-14T01:04:33;6.03;;;1.55;;
52188;SDS011;38162;45.926;13.608;2022-09-14T01:09:43;2.80;;;1.27;;
52188;SDS011;38162;45.926;13.608;2022-09-14T01:15:30;6.00;;;1.30;;
52188;SDS011;38162;45.926;13.608;2022-09-14T01:18:17;2.78;;;1.30;;
52188;SDS011;38162;45.926;13.608;2022-09-14T01:20:53;5.43;;;1.20;;
52188;SDS011;38162;45.926;13.608;2022-09-14T01:28:30;5.93;;;1.42;;
52188;SDS011;38162;45.926;13.608;2022-09-14T01:31:13;3.70;;;1.60;;
52188;SDS011;38162;45.926;13.608;2022-09-14T01:34:06;3.58;;;1.60;;
52188;SDS011;38162;45.926;13.608;2022-09-14T01:36:33;7.53;;;1.60;;
52188;SDS011;38162;45.926;13.608;2022-09-14T01:39:02;4.88;;;1.50;;
52188;SDS011;38162;45.926;13.608;2022-09-14T01:41:28;5.13;;;1.65;;
52188;SDS011;38162;45.926;13.608;2022-09-14T01:43:57;5.85;;;1.67;;
52188;SDS011;38162;45.926;13.608;2022-09-14T01:46:32;9.75;;;1.80;;
52188;SDS011;38162;45.926;13.608;2022-09-14T01:49:10;3.60;;;1.60;;
52188;SDS011;38162;45.926;13.608;2022-09-14T01:54:34;7.05;;;1.33;;
52188;SDS011;38162;45.926;13.608;2022-09-14T02:00:03;6.82;;;1.65;;
52188;SDS011;38162;45.926;13.608;2022-09-14T02:02:33;5.85;;;1.60;;
52188;SDS011;38162;45.926;13.608;2022-09-14T02:05:43;2.80;;;1.45;;
52188;SDS011;38162;45.926;13.608;2022-09-14T02:07:51;4.93;;;1.33;;
52188;SDS011;38162;45.926;13.608;2022-09-14T02:10:17;4.97;;;1.45;;
52188;SDS011;38162;45.926;13.608;2022-09-14T02:12:43;3.35;;;1.30;;
52188;SDS011;38162;45.926;13.608;2022-09-14T02:15:09;2.40;;;1.50;;
52188;SDS011;38162;45.926;13.608;2022-09-14T02:17:37;3.38;;;1.30;;
52188;SDS011;38162;45.926;13.608;2022-09-14T02:20:05;6.20;;;1.55;;
52188;SDS011;38162;45.926;13.608;2022-09-14T02:22:33;3.47;;;1.63;;
52188;SDS011;38162;45.926;13.608;2022-09-14T02:24:59;4.40;;;1.48;;
52188;SDS011;38162;45.926;13.608;2022-09-14T02:27:26;4.43;;;1.65;;
52188;SDS011;38162;45.926;13.608;2022-09-14T02:29:51;2.50;;;1.48;;
52188;SDS011;38162;45.926;13.608;2022-09-14T02:32:28;8.40;;;1.70;;
52188;SDS011;38162;45.926;13.608;2022-09-14T02:37:56;2.47;;;1.40;;
52188;SDS011;38162;45.926;13.608;2022-09-14T02:46:13;2.70;;;1.45;;
52188;SDS011;38162;45.926;13.608;2022-09-14T02:52:12;6.00;;;1.50;;
52188;SDS011;38162;45.926;13.608;2022-09-14T02:54:47;4.40;;;1.30;;
52188;SDS011;38162;45.926;13.608;2022-09-14T02:57:23;2.50;;;1.42;;
52188;SDS011;38162;45.926;13.608;2022-09-14T02:59:49;2.78;;;1.50;;
52188;SDS011;38162;45.926;13.608;2022-09-14T03:02:17;2.38;;;1.38;;
52188;SDS011;38162;45.926;13.608;2022-09-14T03:04:43;6.15;;;1.55;;
52188;SDS011;38162;45.926;13.608;2022-09-14T03:07:08;3.28;;;1.20;;
52188;SDS011;38162;45.926;13.608;2022-09-14T03:09:34;2.88;;;1.70;;
52188;SDS011;38162;45.926;13.608;2022-09-14T03:12:00;4.22;;;1.42;;
52188;SDS011;38162;45.926;13.608;2022-09-14T03:14:26;3.60;;;1.58;;
52188;SDS011;38162;45.926;13.608;2022-09-14T03:16:51;5.68;;;1.58;;
52188;SDS011;38162;45.926;13.608;2022-09-14T03:19:17;3.00;;;1.08;;
52188;SDS011;38162;45.926;13.608;2022-09-14T03:21:43;3.47;;;1.73;;
52188;SDS011;38162;45.926;13.608;2022-09-14T03:24:08;2.40;;;1.70;;
52188;SDS011;38162;45.926;13.608;2022-09-14T03:26:34;2.63;;;1.42;;
52188;SDS011;38162;45.926;13.608;2022-09-14T03:29:02;7.05;;;1.80;;
52188;SDS011;38162;45.926;13.608;2022-09-14T03:31:29;2.83;;;1.50;;
52188;SDS011;38162;45.926;13.608;2022-09-14T03:33:55;7.22;;;1.60;;
52188;SDS011;38162;45.926;13.608;2022-09-14T03:36:23;9.05;;;1.48;;
52188;SDS011;38162;45.926;13.608;2022-09-14T03:38:51;3.83;;;1.75;;
52188;SDS011;38162;45.926;13.608;2022-09-14T03:41:18;3.47;;;1.83;;
52188;SDS011;38162;45.926;13.608;2022-09-14T03:43:45;5.53;;;1.70;;
52188;SDS011;38162;45.926;13.608;2022-09-14T03:46:12;4.65;;;1.50;;
52188;SDS011;38162;45.926;13.608;2022-09-14T03:48:39;3.75;;;1.58;;
52188;SDS011;38162;45.926;13.608;2022-09-14T03:51:06;2.70;;;1.67;;
52188;SDS011;38162;45.926;13.608;2022-09-14T03:53:33;3.40;;;1.60;;
52188;SDS011;38162;45.926;13.608;2022-09-14T03:55:59;3.25;;;1.60;;
52188;SDS011;38162;45.926;13.608;2022-09-14T03:58:25;7.82;;;1.70;;
52188;SDS011;38162;45.926;13.608;2022-09-14T04:00:55;5.85;;;1.50;;
52188;SDS011;38162;45.926;13.608;2022-09-14T04:03:21;4.15;;;1.63;;
52188;SDS011;38162;45.926;13.608;2022-09-14T04:05:53;8.00;;;1.95;;
52188;SDS011;38162;45.926;13.608;2022-09-14T04:08:20;10.40;;;1.70;;
52188;SDS011;38162;45.926;13.608;2022-09-14T04:10:46;4.70;;;1.60;;
52188;SDS011;38162;45.926;13.608;2022-09-14T04:13:11;3.20;;;1.45;;
52188;SDS011;38162;45.926;13.608;2022-09-14T04:15:37;3.25;;;1.50;;
52188;SDS011;38162;45.926;13.608;2022-09-14T04:18:03;6.63;;;1.70;;
52188;SDS011;38162;45.926;13.608;2022-09-14T04:20:28;4.47;;;1.48;;
52188;SDS011;38162;45.926;13.608;2022-09-14T04:22:54;5.05;;;1.60;;
52188;SDS011;38162;45.926;13.608;2022-09-14T04:25:20;5.93;;;1.63;;
52188;SDS011;38162;45.926;13.608;2022-09-14T04:27:47;4.22;;;1.50;;
52188;SDS011;38162;45.926;13.608;2022-09-14T04:30:14;4.80;;;1.65;;
52188;SDS011;38162;45.926;13.608;2022-09-14T04:32:40;4.43;;;1.70;;
52188;SDS011;38162;45.926;13.608;2022-09-14T04:35:07;4.25;;;1.55;;
52188;SDS011;38162;45.926;13.608;2022-09-14T04:37:33;7.50;;;1.83;;
52188;SDS011;38162;45.926;13.608;2022-09-14T04:39:59;3.25;;;1.40;;
52188;SDS011;38162;45.926;13.608;2022-09-14T04:42:24;4.20;;;1.65;;
52188;SDS011;38162;45.926;13.608;2022-09-14T04:44:50;7.38;;;1.48;;
52188;SDS011;38162;45.926;13.608;2022-09-14T04:47:16;7.38;;;1.70;;
52188;SDS011;38162;45.926;13.608;2022-09-14T04:49:41;3.83;;;1.52;;
52188;SDS011;38162;45.926;13.608;2022-09-14T04:52:07;3.35;;;1.23;;
52188;SDS011;38162;45.926;13.608;2022-09-14T04:54:32;5.63;;;1.60;;
52188;SDS011;38162;45.926;13.608;2022-09-14T04:56:58;3.13;;;1.30;;
52188;SDS011;38162;45.926;13.608;2022-09-14T04:59:24;4.43;;;1.40;;
52188;SDS011;38162;45.926;13.608;2022-09-14T05:01:49;6.55;;;1.40;;
52188;SDS011;38162;45.926;13.608;2022-09-14T05:04:15;2.70;;;1.35;;
52188;SDS011;38162;45.926;13.608;2022-09-14T05:06:41;7.93;;;2.05;;
52188;SDS011;38162;45.926;13.608;2022-09-14T05:09:12;3.72;;;1.25;;
52188;SDS011;38162;45.926;13.608;2022-09-14T05:11:40;8.25;;;1.70;;
52188;SDS011;38162;45.926;13.608;2022-09-14T05:14:06;3.92;;;1.67;;
52188;SDS011;38162;45.926;13.608;2022-09-14T05:16:35;13.68;;;2.65;;
52188;SDS011;38162;45.926;13.608;2022-09-14T05:19:03;5.78;;;1.63;;
52188;SDS011;38162;45.926;13.608;2022-09-14T05:21:31;7.53;;;1.60;;
52188;SDS011;38162;45.926;13.608;2022-09-14T05:24:00;10.50;;;2.63;;
52188;SDS011;38162;45.926;13.608;2022-09-14T05:26:28;7.57;;;1.75;;
52188;SDS011;38162;45.926;13.608;2022-09-14T05:28:55;3.63;;;1.50;;
52188;SDS011;38162;45.926;13.608;2022-09-14T05:31:23;5.82;;;1.50;;
52188;SDS011;38162;45.926;13.608;2022-09-14T05:33:50;13.65;;;2.20;;
52188;SDS011;38162;45.926;13.608;2022-09-14T05:36:17;11.13;;;2.20;;
52188;SDS011;38162;45.926;13.608;2022-09-14T05:38:43;8.73;;;1.73;;
52188;SDS011;38162;45.926;13.608;2022-09-14T05:41:10;5.78;;;1.65;;
52188;SDS011;38162;45.926;13.608;2022-09-14T05:43:36;8.25;;;1.95;;
52188;SDS011;38162;45.926;13.608;2022-09-14T05:46:03;3.97;;;1.33;;
52188;SDS011;38162;45.926;13.608;2022-09-14T05:48:34;12.10;;;1.70;;
52188;SDS011;38162;45.926;13.608;2022-09-14T05:51:02;5.38;;;1.73;;
52188;SDS011;38162;45.926;13.608;2022-09-14T05:53:31;6.97;;;1.70;;
52188;SDS011;38162;45.926;13.608;2022-09-14T05:56:01;7.90;;;2.03;;
52188;SDS011;38162;45.926;13.608;2022-09-14T05:58:28;13.75;;;2.72;;
52188;SDS011;38162;45.926;13.608;2022-09-14T06:00:54;8.63;;;1.70;;
52188;SDS011;38162;45.926;13.608;2022-09-14T06:03:20;6.50;;;2.10;;
52188;SDS011;38162;45.926;13.608;2022-09-14T06:05:46;10.48;;;2.15;;
52188;SDS011;38162;45.926;13.608;2022-09-14T06:08:11;10.10;;;1.75;;
52188;SDS011;38162;45.926;13.608;2022-09-14T06:10:37;7.45;;;2.30;;
52188;SDS011;38162;45.926;13.608;2022-09-14T06:13:03;10.50;;;1.60;;
52188;SDS011;38162;45.926;13.608;2022-09-14T06:15:28;11.43;;;1.90;;
52188;SDS011;38162;45.926;13.608;2022-09-14T06:17:54;7.38;;;1.80;;
52188;SDS011;38162;45.926;13.608;2022-09-14T06:20:20;6.35;;;1.20;;
52188;SDS011;38162;45.926;13.608;2022-09-14T06:22:45;9.85;;;1.40;;
52188;SDS011;38162;45.926;13.608;2022-09-14T06:25:11;5.32;;;1.50;;
52188;SDS011;38162;45.926;13.608;2022-09-14T06:27:37;11.02;;;1.63;;
52188;SDS011;38162;45.926;13.608;2022-09-14T06:30:03;7.30;;;1.70;;
52188;SDS011;38162;45.926;13.608;2022-09-14T06:32:30;8.05;;;1.70;;
52188;SDS011;38162;45.926;13.608;2022-09-14T06:34:55;7.18;;;1.50;;
52188;SDS011;38162;45.926;13.608;2022-09-14T06:37:21;6.13;;;1.38;;
52188;SDS011;38162;45.926;13.608;2022-09-14T06:39:47;4.28;;;2.03;;
52188;SDS011;38162;45.926;13.608;2022-09-14T06:42:12;8.93;;;1.60;;
52188;SDS011;38162;45.926;13.608;2022-09-14T06:44:38;11.40;;;2.00;;
52188;SDS011;38162;45.926;13.608;2022-09-14T06:47:04;5.70;;;1.60;;
52188;SDS011;38162;45.926;13.608;2022-09-14T06:49:30;4.53;;;1.40;;
52188;SDS011;38162;45.926;13.608;2022-09-14T06:51:56;9.48;;;1.40;;
52188;SDS011;38162;45.926;13.608;2022-09-14T06:54:22;3.67;;;1.50;;
52188;SDS011;38162;45.926;13.608;2022-09-14T06:56:48;5.53;;;1.10;;
52188;SDS011;38162;45.926;13.608;2022-09-14T06:59:15;4.85;;;1.48;;
52188;SDS011;38162;45.926;13.608;2022-09-14T07:01:41;5.25;;;0.90;;
52188;SDS011;38162;45.926;13.608;2022-09-14T07:04:09;4.82;;;1.30;;
52188;SDS011;38162;45.926;13.608;2022-09-14T07:06:45;6.88;;;1.38;;
52188;SDS011;38162;45.926;13.608;2022-09-14T07:09:13;7.40;;;1.20;;
52188;SDS011;38162;45.926;13.608;2022-09-14T07:11:40;6.28;;;1.60;;
52188;SDS011;38162;45.926;13.608;2022-09-14T07:14:06;4.68;;;1.50;;
52188;SDS011;38162;45.926;13.608;2022-09-14T07:16:33;7.10;;;1.35;;
52188;SDS011;38162;45.926;13.608;2022-09-14T07:19:01;4.20;;;1.30;;
52188;SDS011;38162;45.926;13.608;2022-09-14T07:21:29;3.65;;;1.27;;
52188;SDS011;38162;45.926;13.608;2022-09-14T07:23:55;5.18;;;1.20;;
52188;SDS011;38162;45.926;13.608;2022-09-14T07:26:22;4.55;;;1.20;;
52188;SDS011;38162;45.926;13.608;2022-09-14T07:28:52;2.33;;;1.17;;
52188;SDS011;38162;45.926;13.608;2022-09-14T07:31:28;6.07;;;2.25;;
52188;SDS011;38162;45.926;13.608;2022-09-14T07:33:56;8.05;;;1.20;;
52188;SDS011;38162;45.926;13.608;2022-09-14T07:36:23;2.58;;;0.93;;
52188;SDS011;38162;45.926;13.608;2022-09-14T07:38:51;5.95;;;1.40;;
52188;SDS011;38162;45.926;13.608;2022-09-14T07:41:17;5.25;;;0.93;;
52188;SDS011;38162;45.926;13.608;2022-09-14T07:43:47;2.63;;;1.00;;
52188;SDS011;38162;45.926;13.608;2022-09-14T07:46:19;5.35;;;0.88;;
52188;SDS011;38162;45.926;13.608;2022-09-14T07:48:45;2.20;;;1.05;;
52188;SDS011;38162;45.926;13.608;2022-09-14T07:51:12;5.03;;;1.05;;
52188;SDS011;38162;45.926;13.608;2022-09-14T07:53:39;5.22;;;1.20;;
52188;SDS011;38162;45.926;13.608;2022-09-14T07:56:07;3.58;;;1.55;;
52188;SDS011;38162;45.926;13.608;2022-09-14T07:58:33;4.20;;;1.10;;
52188;SDS011;38162;45.926;13.608;2022-09-14T08:01:04;8.40;;;1.60;;
52188;SDS011;38162;45.926;13.608;2022-09-14T08:03:32;7.50;;;2.22;;
52188;SDS011;38162;45.926;13.608;2022-09-14T08:06:00;12.10;;;5.85;;
52188;SDS011;38162;45.926;13.608;2022-09-14T08:08:31;18.60;;;8.90;;
52188;SDS011;38162;45.926;13.608;2022-09-14T08:13:41;14.25;;;6.95;;
52188;SDS011;38162;45.926;13.608;2022-09-14T08:16:13;18.10;;;5.65;;
52188;SDS011;38162;45.926;13.608;2022-09-14T08:18:39;12.20;;;4.45;;
52188;SDS011;38162;45.926;13.608;2022-09-14T08:21:10;8.15;;;3.88;;
52188;SDS011;38162;45.926;13.608;2022-09-14T08:23:38;9.48;;;4.68;;
52188;SDS011;38162;45.926;13.608;2022-09-14T08:26:05;10.40;;;4.30;;
52188;SDS011;38162;45.926;13.608;2022-09-14T08:28:33;13.50;;;4.53;;
52188;SDS011;38162;45.926;13.608;2022-09-14T08:31:10;7.70;;;3.05;;
52188;SDS011;38162;45.926;13.608;2022-09-14T08:33:42;8.68;;;2.97;;
52188;SDS011;38162;45.926;13.608;2022-09-14T08:36:10;4.65;;;1.70;;
52188;SDS011;38162;45.926;13.608;2022-09-14T08:38:38;9.57;;;2.30;;
52188;SDS011;38162;45.926;13.608;2022-09-14T08:41:08;8.88;;;2.28;;
52188;SDS011;38162;45.926;13.608;2022-09-14T08:43:36;7.13;;;2.33;;
52188;SDS011;38162;45.926;13.608;2022-09-14T08:46:04;7.35;;;1.52;;
52188;SDS011;38162;45.926;13.608;2022-09-14T08:48:45;5.00;;;1.40;;
52188;SDS011;38162;45.926;13.608;2022-09-14T08:51:12;6.60;;;1.30;;
52188;SDS011;38162;45.926;13.608;2022-09-14T08:53:39;5.72;;;1.40;;
52188;SDS011;38162;45.926;13.608;2022-09-14T08:56:16;3.25;;;1.33;;
52188;SDS011;38162;45.926;13.608;2022-09-14T09:09:24;3.75;;;0.90;;
52188;SDS011;38162;45.926;13.608;2022-09-14T09:11:56;3.50;;;1.30;;
52188;SDS011;38162;45.926;13.608;2022-09-14T09:14:29;3.22;;;1.02;;
52188;SDS011;38162;45.926;13.608;2022-09-14T09:16:59;1.30;;;0.90;;
52188;SDS011;38162;45.926;13.608;2022-09-14T09:19:29;2.55;;;0.82;;
52188;SDS011;38162;45.926;13.608;2022-09-14T09:22:01;5.07;;;1.05;;
52188;SDS011;38162;45.926;13.608;2022-09-14T09:24:36;4.38;;;1.08;;
52188;SDS011;38162;45.926;13.608;2022-09-14T09:27:09;2.33;;;0.82;;
52188;SDS011;38162;45.926;13.608;2022-09-14T09:29:35;3.60;;;1.10;;
52188;SDS011;38162;45.926;13.608;2022-09-14T09:32:02;6.72;;;1.40;;
52188;SDS011;38162;45.926;13.608;2022-09-14T09:34:29;6.55;;;1.58;;
52188;SDS011;38162;45.926;13.608;2022-09-14T09:36:57;3.35;;;1.30;;
52188;SDS011;38162;45.926;13.608;2022-09-14T09:39:25;2.05;;;1.13;;
52188;SDS011;38162;45.926;13.608;2022-09-14T09:44:21;4.80;;;1.00;;
52188;SDS011;38162;45.926;13.608;2022-09-14T09:46:49;4.00;;;1.13;;
52188;SDS011;38162;45.926;13.608;2022-09-14T09:49:25;3.35;;;1.00;;
52188;SDS011;38162;45.926;13.608;2022-09-14T09:52:09;5.88;;;1.00;;
52188;SDS011;38162;45.926;13.608;2022-09-14T09:54:35;2.85;;;1.20;;
52188;SDS011;38162;45.926;13.608;2022-09-14T09:57:18;5.05;;;0.90;;
52188;SDS011;38162;45.926;13.608;2022-09-14T09:59:47;2.45;;;1.05;;
52188;SDS011;38162;45.926;13.608;2022-09-14T10:02:20;5.70;;;1.10;;
52188;SDS011;38162;45.926;13.608;2022-09-14T10:07:31;7.05;;;1.63;;
52188;SDS011;38162;45.926;13.608;2022-09-14T10:10:00;2.90;;;1.15;;
52188;SDS011;38162;45.926;13.608;2022-09-14T10:12:30;4.15;;;1.00;;
52188;SDS011;38162;45.926;13.608;2022-09-14T10:15:04;4.60;;;1.20;;
52188;SDS011;38162;45.926;13.608;2022-09-14T10:17:36;4.70;;;1.13;;
52188;SDS011;38162;45.926;13.608;2022-09-14T10:20:02;5.85;;;1.00;;
52188;SDS011;38162;45.926;13.608;2022-09-14T10:22:31;2.10;;;1.05;;
52188;SDS011;38162;45.926;13.608;2022-09-14T10:25:00;2.15;;;1.38;;
52188;SDS011;38162;45.926;13.608;2022-09-14T10:27:39;2.85;;;1.05;;
52188;SDS011;38162;45.926;13.608;2022-09-14T10:30:20;7.55;;;1.30;;
52188;SDS011;38162;45.926;13.608;2022-09-14T10:33:02;11.70;;;2.38;;
52188;SDS011;38162;45.926;13.608;2022-09-14T10:35:44;2.88;;;1.30;;
52188;SDS011;38162;45.926;13.608;2022-09-14T10:43:39;6.00;;;1.58;;
52188;SDS011;38162;45.926;13.608;2022-09-14T10:46:06;5.88;;;1.88;;
52188;SDS011;38162;45.926;13.608;2022-09-14T10:59:52;4.18;;;1.45;;
52188;SDS011;38162;45.926;13.608;2022-09-14T11:16:09;4.82;;;1.60;;
52188;SDS011;38162;45.926;13.608;2022-09-14T11:27:36;5.05;;;1.30;;
52188;SDS011;38162;45.926;13.608;2022-09-14T11:32:36;5.35;;;1.70;;
52188;SDS011;38162;45.926;13.608;2022-09-14T11:40:40;8.13;;;1.40;;
52188;SDS011;38162;45.926;13.608;2022-09-14T11:45:54;5.72;;;1.92;;
52188;SDS011;38162;45.926;13.608;2022-09-14T11:48:39;9.15;;;3.00;;
52188;SDS011;38162;45.926;13.608;2022-09-14T11:51:17;7.65;;;2.50;;
52188;SDS011;38162;45.926;13.608;2022-09-14T11:53:53;5.55;;;1.83;;
52188;SDS011;38162;45.926;13.608;2022-09-14T11:56:26;4.60;;;1.67;;
52188;SDS011;38162;45.926;13.608;2022-09-14T11:58:55;7.70;;;1.60;;
52188;SDS011;38162;45.926;13.608;2022-09-14T12:11:57;8.63;;;1.90;;
52188;SDS011;38162;45.926;13.608;2022-09-14T12:19:29;17.30;;;3.67;;
52188;SDS011;38162;45.926;13.608;2022-09-14T12:22:16;9.73;;;2.53;;
52188;SDS011;38162;45.926;13.608;2022-09-14T12:27:37;8.48;;;2.75;;
52188;SDS011;38162;45.926;13.608;2022-09-14T12:35:58;14.40;;;3.67;;
52188;SDS011;38162;45.926;13.608;2022-09-14T12:43:49;19.63;;;4.85;;
52188;SDS011;38162;45.926;13.608;2022-09-14T13:04:43;14.10;;;4.97;;
52188;SDS011;38162;45.926;13.608;2022-09-14T13:07:12;17.73;;;5.15;;
52188;SDS011;38162;45.926;13.608;2022-09-14T13:09:59;13.18;;;5.43;;
52188;SDS011;38162;45.926;13.608;2022-09-14T13:15:21;12.70;;;4.18;;
52188;SDS011;38162;45.926;13.608;2022-09-14T13:18:02;18.98;;;5.50;;
52188;SDS011;38162;45.926;13.608;2022-09-14T13:20:29;14.35;;;5.30;;
52188;SDS011;38162;45.926;13.608;2022-09-14T13:22:56;18.38;;;6.30;;
52188;SDS011;38162;45.926;13.608;2022-09-14T13:25:26;11.25;;;4.03;;
52188;SDS011;38162;45.926;13.608;2022-09-14T13:28:01;7.40;;;4.07;;
52188;SDS011;38162;45.926;13.608;2022-09-14T13:30:30;10.15;;;3.97;;
52188;SDS011;38162;45.926;13.608;2022-09-14T13:32:57;15.88;;;3.85;;
52188;SDS011;38162;45.926;13.608;2022-09-14T13:35:31;11.02;;;4.47;;
52188;SDS011;38162;45.926;13.608;2022-09-14T13:38:12;7.93;;;3.90;;
52188;SDS011;38162;45.926;13.608;2022-09-14T13:40:41;9.35;;;3.20;;
52188;SDS011;38162;45.926;13.608;2022-09-14T13:43:07;10.35;;;3.42;;
52188;SDS011;38162;45.926;13.608;2022-09-14T13:45:33;7.68;;;3.13;;
52188;SDS011;38162;45.926;13.608;2022-09-14T13:48:00;11.80;;;3.70;;
52188;SDS011;38162;45.926;13.608;2022-09-14T13:50:29;9.70;;;2.90;;
52188;SDS011;38162;45.926;13.608;2022-09-14T13:52:55;12.57;;;2.92;;
52188;SDS011;38162;45.926;13.608;2022-09-14T13:58:03;9.20;;;2.70;;
52188;SDS011;38162;45.926;13.608;2022-09-14T14:00:30;12.63;;;3.80;;
52188;SDS011;38162;45.926;13.608;2022-09-14T14:02:59;11.05;;;2.90;;
52188;SDS011;38162;45.926;13.608;2022-09-14T14:05:27;10.70;;;2.90;;
52188;SDS011;38162;45.926;13.608;2022-09-14T14:07:56;9.85;;;3.10;;
52188;SDS011;38162;45.926;13.608;2022-09-14T14:10:34;13.23;;;3.05;;
52188;SDS011;38162;45.926;13.608;2022-09-14T14:13:09;8.20;;;3.45;;
52188;SDS011;38162;45.926;13.608;2022-09-14T14:15:36;10.73;;;3.10;;
52188;SDS011;38162;45.926;13.608;2022-09-14T14:23:50;12.65;;;4.68;;
52188;SDS011;38162;45.926;13.608;2022-09-14T14:26:18;9.93;;;3.90;;
52188;SDS011;38162;45.926;13.608;2022-09-14T14:28:49;15.68;;;4.38;;
52188;SDS011;38162;45.926;13.608;2022-09-14T14:31:17;12.55;;;4.05;;
52188;SDS011;38162;45.926;13.608;2022-09-14T14:33:48;17.20;;;4.43;;
52188;SDS011;38162;45.926;13.608;2022-09-14T14:36:15;13.57;;;5.22;;
52188;SDS011;38162;45.926;13.608;2022-09-14T14:38:43;16.48;;;7.20;;
52188;SDS011;38162;45.926;13.608;2022-09-14T14:41:14;12.70;;;7.25;;
52188;SDS011;38162;45.926;13.608;2022-09-14T14:43:43;12.30;;;6.90;;
52188;SDS011;38162;45.926;13.608;2022-09-14T14:46:13;12.77;;;7.00;;
52188;SDS011;38162;45.926;13.608;2022-09-14T14:48:40;17.80;;;7.45;;
52188;SDS011;38162;45.926;13.608;2022-09-14T14:51:08;14.13;;;6.57;;
52188;SDS011;38162;45.926;13.608;2022-09-14T14:53:37;14.07;;;7.95;;
52188;SDS011;38162;45.926;13.608;2022-09-14T14:56:03;15.98;;;7.78;;
52188;SDS011;38162;45.926;13.608;2022-09-14T14:58:29;15.80;;;7.35;;
52188;SDS011;38162;45.926;13.608;2022-09-14T15:00:55;15.02;;;8.10;;
52188;SDS011;38162;45.926;13.608;2022-09-14T15:03:21;224.30;;;36.58;;
52188;SDS011;38162;45.926;13.608;2022-09-14T15:05:47;68.13;;;14.02;;
52188;SDS011;38162;45.926;13.608;2022-09-14T15:08:15;13.32;;;5.45;;
52188;SDS011;38162;45.926;13.608;2022-09-14T15:10:41;14.30;;;5.05;;
52188;SDS011;38162;45.926;13.608;2022-09-14T15:13:09;12.40;;;4.78;;
52188;SDS011;38162;45.926;13.608;2022-09-14T15:15:36;14.85;;;4.70;;
52188;SDS011;38162;45.926;13.608;2022-09-14T15:18:04;10.88;;;3.95;;
52188;SDS011;38162;45.926;13.608;2022-09-14T15:20:29;11.30;;;4.00;;
52188;SDS011;38162;45.926;13.608;2022-09-14T15:22:55;9.48;;;3.40;;
52188;SDS011;38162;45.926;13.608;2022-09-14T15:25:21;9.55;;;3.15;;
52188;SDS011;38162;45.926;13.608;2022-09-14T15:27:46;13.18;;;3.35;;
52188;SDS011;38162;45.926;13.608;2022-09-14T15:30:12;10.77;;;3.33;;
52188;SDS011;38162;45.926;13.608;2022-09-14T15:32:39;16.02;;;4.10;;
52188;SDS011;38162;45.926;13.608;2022-09-14T15:35:06;11.60;;;2.97;;
52188;SDS011;38162;45.926;13.608;2022-09-14T15:37:34;6.78;;;2.80;;
52188;SDS011;38162;45.926;13.608;2022-09-14T15:39:59;9.48;;;3.15;;
52188;SDS011;38162;45.926;13.608;2022-09-14T15:42:25;9.35;;;3.10;;
52188;SDS011;38162;45.926;13.608;2022-09-14T15:44:51;8.88;;;2.40;;
52188;SDS011;38162;45.926;13.608;2022-09-14T15:47:17;10.98;;;3.25;;
52188;SDS011;38162;45.926;13.608;2022-09-14T15:49:43;8.32;;;3.03;;
52188;SDS011;38162;45.926;13.608;2022-09-14T15:52:09;8.27;;;3.50;;
52188;SDS011;38162;45.926;13.608;2022-09-14T15:54:35;8.80;;;3.20;;
52188;SDS011;38162;45.926;13.608;2022-09-14T15:57:02;12.65;;;3.45;;
52188;SDS011;38162;45.926;13.608;2022-09-14T15:59:30;14.90;;;3.20;;
52188;SDS011;38162;45.926;13.608;2022-09-14T16:01:56;8.18;;;3.60;;
52188;SDS011;38162;45.926;13.608;2022-09-14T16:04:22;9.73;;;3.10;;
52188;SDS011;38162;45.926;13.608;2022-09-14T16:06:47;15.73;;;3.20;;
52188;SDS011;38162;45.926;13.608;2022-09-14T16:09:14;13.90;;;3.42;;
52188;SDS011;38162;45.926;13.608;2022-09-14T16:11:41;9.27;;;3.22;;
52188;SDS011;38162;45.926;13.608;2022-09-14T16:14:07;15.43;;;2.95;;
52188;SDS011;38162;45.926;13.608;2022-09-14T16:16:34;9.02;;;2.90;;
52188;SDS011;38162;45.926;13.608;2022-09-14T16:19:08;8.65;;;2.75;;
52188;SDS011;38162;45.926;13.608;2022-09-14T16:21:35;14.95;;;3.30;;
52188;SDS011;38162;45.926;13.608;2022-09-14T16:24:03;9.18;;;2.70;;
52188;SDS011;38162;45.926;13.608;2022-09-14T16:26:32;7.95;;;2.70;;
52188;SDS011;38162;45.926;13.608;2022-09-14T16:29:00;9.35;;;3.13;;
52188;SDS011;38162;45.926;13.608;2022-09-14T16:31:27;12.77;;;3.03;;
52188;SDS011;38162;45.926;13.608;2022-09-14T16:33:56;8.35;;;2.80;;
52188;SDS011;38162;45.926;13.608;2022-09-14T16:36:30;6.47;;;2.88;;
52188;SDS011;38162;45.926;13.608;2022-09-14T16:38:58;8.30;;;2.60;;
52188;SDS011;38162;45.926;13.608;2022-09-14T16:41:25;6.82;;;2.55;;
52188;SDS011;38162;45.926;13.608;2022-09-14T16:43:55;6.35;;;2.58;;
52188;SDS011;38162;45.926;13.608;2022-09-14T16:46:26;9.93;;;2.65;;
52188;SDS011;38162;45.926;13.608;2022-09-14T16:48:53;17.30;;;2.78;;
52188;SDS011;38162;45.926;13.608;2022-09-14T16:51:23;6.82;;;3.17;;
52188;SDS011;38162;45.926;13.608;2022-09-14T16:53:50;11.13;;;2.92;;
52188;SDS011;38162;45.926;13.608;2022-09-14T16:56:18;10.57;;;2.63;;
52188;SDS011;38162;45.926;13.608;2022-09-14T16:58:46;14.85;;;2.92;;
52188;SDS011;38162;45.926;13.608;2022-09-14T17:01:18;11.18;;;2.38;;
52188;SDS011;38162;45.926;13.608;2022-09-14T17:06:17;6.50;;;2.42;;
52188;SDS011;38162;45.926;13.608;2022-09-14T17:08:44;6.55;;;2.80;;
52188;SDS011;38162;45.926;13.608;2022-09-14T17:11:11;12.40;;;2.80;;
52188;SDS011;38162;45.926;13.608;2022-09-14T17:13:38;9.40;;;2.40;;
52188;SDS011;38162;45.926;13.608;2022-09-14T17:18:31;8.98;;;2.30;;
52188;SDS011;38162;45.926;13.608;2022-09-14T17:21:01;7.15;;;2.67;;
52188;SDS011;38162;45.926;13.608;2022-09-14T17:23:31;9.43;;;2.67;;